Time;durP1;ratioP1;P1;durP2;ratioP2;P2;SDS_P1;SDS_P2;PMS_P1;PMS_P2;Temp;Humidity;BMP_temperature;BMP_pressure;BME280_temperature;BME280_humidity;BME280_pressure;Samples;Min_cycle;Max_cycle;Signal;HPM_P1;HPM_P2
2024/02/26 00:01:12;;;;;;;46.97;29.20;;;;;;;9.47;100.00;99671.54;1477513;87;21434;-78
2024/02/26 00:03:42;;;;;;;41.03;27.50;;;;;;;9.46;100.00;99690.50;1463846;88;21412;-78
2024/02/26 00:06:08;;;;;;;42.40;27.93;;;;;;;9.45;100.00;99665.08;1472271;87;21382;-77
2024/02/26 00:08:35;;;;;;;45.37;30.13;;;;;;;9.45;100.00;99673.00;1475346;88;21368;-77
2024/02/26 00:11:02;;;;;;;46.73;28.97;;;;;;;9.44;100.00;99675.32;1471154;88;21500;-77
2024/02/26 00:13:29;;;;;;;46.37;30.30;;;;;;;9.42;100.00;99683.89;1465810;87;21331;-78
2024/02/26 00:15:56;;;;;;;44.07;29.40;;;;;;;9.44;100.00;99683.74;1482771;88;21301;-78
2024/02/26 00:18:23;;;;;;;45.03;28.93;;;;;;;9.40;100.00;99679.75;1471534;87;21863;-79
2024/02/26 00:20:50;;;;;;;43.23;28.20;;;;;;;9.33;100.00;99685.34;1481827;87;21302;-78
2024/02/26 00:23:17;;;;;;;45.93;27.73;;;;;;;9.29;100.00;99687.94;1479842;87;21368;-79
2024/02/26 00:25:44;;;;;;;43.23;29.33;;;;;;;9.28;100.00;99684.98;1468682;87;21302;-79
2024/02/26 00:28:13;;;;;;;43.17;28.07;;;;;;;9.27;100.00;99678.88;1474429;87;21361;-78
2024/02/26 00:30:40;;;;;;;47.23;30.57;;;;;;;9.26;100.00;99687.76;1477106;87;22359;-78
2024/02/26 00:33:09;;;;;;;44.43;27.07;;;;;;;9.20;100.00;99682.61;1472717;87;22527;-78
2024/02/26 00:35:37;;;;;;;43.17;28.60;;;;;;;9.12;100.00;99687.02;1479216;87;21331;-78
2024/02/26 00:38:04;;;;;;;42.13;28.57;;;;;;;9.03;100.00;99684.36;1474269;87;21523;-78
2024/02/26 00:40:31;;;;;;;49.47;28.17;;;;;;;9.01;100.00;99682.86;1468945;87;21390;-78
2024/02/26 00:42:58;;;;;;;46.50;28.60;;;;;;;8.97;100.00;99684.95;1474099;87;21420;-76
2024/02/26 00:45:25;;;;;;;44.87;28.80;;;;;;;8.93;100.00;99680.16;1473319;87;21389;-79
2024/02/26 00:47:52;;;;;;;49.87;30.80;;;;;;;8.86;100.00;99678.64;1473415;87;21486;-77
2024/02/26 00:50:19;;;;;;;44.63;29.57;;;;;;;8.82;100.00;99678.59;1475964;88;22000;-78
2024/02/26 00:52:46;;;;;;;45.93;30.43;;;;;;;8.81;100.00;99676.95;1476310;87;21539;-79
2024/02/26 00:55:13;;;;;;;41.07;27.13;;;;;;;8.79;100.00;99669.17;1473728;87;21449;-78
2024/02/26 00:57:41;;;;;;;44.83;29.87;;;;;;;8.78;100.00;99673.30;1467023;87;21398;-78
2024/02/26 01:00:09;;;;;;;48.87;29.60;;;;;;;8.70;100.00;99670.60;1471145;87;21427;-78
2024/02/26 01:02:36;;;;;;;43.27;27.93;;;;;;;8.68;100.00;99681.79;1471455;87;21630;-77
2024/02/26 01:05:04;;;;;;;51.17;31.33;;;;;;;8.64;100.00;99675.17;1482296;87;21428;-77
2024/02/26 01:07:35;;;;;;;40.50;27.43;;;;;;;8.64;100.00;99676.50;1466214;87;22255;-76
2024/02/26 01:10:00;;;;;;;49.13;31.50;;;;;;;8.61;100.00;99678.12;1471414;87;21464;-76
2024/02/26 01:12:27;;;;;;;44.47;29.37;;;;;;;8.58;100.00;99670.84;1467270;88;22424;-78
2024/02/26 01:14:54;;;;;;;41.10;28.87;;;;;;;8.59;100.00;99676.45;1471394;88;21509;-77
2024/02/26 01:17:21;;;;;;;43.97;28.43;;;;;;;8.56;100.00;99675.44;1477662;87;21538;-77
2024/02/26 01:19:48;;;;;;;48.90;30.23;;;;;;;8.53;100.00;99677.06;1467798;87;22329;-76
2024/02/26 01:22:16;;;;;;;43.70;29.90;;;;;;;8.52;100.00;99676.73;1480646;87;22217;-78
2024/02/26 01:24:43;;;;;;;45.70;27.77;;;;;;;8.53;100.00;99679.70;1470959;88;21382;-77
2024/02/26 01:27:10;;;;;;;47.00;30.00;;;;;;;8.53;100.00;99673.11;1469077;88;21323;-77
2024/02/26 01:29:37;;;;;;;49.37;31.57;;;;;;;8.55;100.00;99672.47;1468865;87;21316;-78
2024/02/26 01:32:05;;;;;;;43.97;30.70;;;;;;;8.57;100.00;99666.56;1472239;87;21470;-78
2024/02/26 01:34:32;;;;;;;49.73;29.73;;;;;;;8.57;100.00;99665.70;1477002;87;21367;-78
2024/02/26 01:37:00;;;;;;;45.47;29.10;;;;;;;8.55;100.00;99660.60;1480202;87;22293;-78
2024/02/26 01:39:28;;;;;;;37.53;25.73;;;;;;;8.48;100.00;99659.55;1477013;88;22313;-78
2024/02/26 01:41:56;;;;;;;44.03;27.80;;;;;;;8.41;100.00;99662.96;1468700;87;21382;-77
2024/02/26 01:44:23;;;;;;;40.20;26.43;;;;;;;8.32;100.00;99662.03;1477907;87;21530;-77
2024/02/26 01:46:50;;;;;;;37.47;27.23;;;;;;;8.27;100.00;99663.80;1478208;88;21405;-78
2024/02/26 01:49:18;;;;;;;39.97;27.43;;;;;;;8.23;100.00;99657.18;1469829;88;21316;-77
2024/02/26 01:51:45;;;;;;;38.50;26.37;;;;;;;8.22;100.00;99663.91;1478923;87;21485;-77
2024/02/26 01:54:13;;;;;;;46.00;29.13;;;;;;;8.19;100.00;99644.44;1478207;87;21493;-78
2024/02/26 01:56:41;;;;;;;40.10;26.47;;;;;;;8.16;100.00;99646.89;1470073;87;21375;-78
2024/02/26 01:59:09;;;;;;;42.63;28.43;;;;;;;8.13;100.00;99649.33;1468905;87;21619;-78
2024/02/26 02:01:38;;;;;;;37.17;26.23;;;;;;;8.11;100.00;99647.36;1474894;87;21397;-78
2024/02/26 02:04:05;;;;;;;39.03;26.07;;;;;;;8.09;100.00;99637.45;1474050;87;21679;-78
2024/02/26 02:06:33;;;;;;;42.70;28.07;;;;;;;8.09;100.00;99648.48;1480568;88;22757;-78
2024/02/26 02:09:06;;;;;;;44.03;27.13;;;;;;;8.04;100.00;99652.88;1471541;88;21427;-78
2024/02/26 02:11:29;;;;;;;42.90;29.37;;;;;;;8.04;100.00;99656.00;1482776;88;21503;-77
2024/02/26 02:13:56;;;;;;;40.83;29.07;;;;;;;8.03;100.00;99645.96;1477473;87;21911;-76
2024/02/26 02:16:24;;;;;;;46.63;30.20;;;;;;;8.06;100.00;99648.29;1477955;87;22343;-77
2024/02/26 02:18:51;;;;;;;40.03;27.33;;;;;;;8.07;100.00;99644.66;1474256;87;21552;-77
2024/02/26 02:21:18;;;;;;;45.10;30.33;;;;;;;8.07;100.00;99648.63;1482953;87;21346;-77
2024/02/26 02:23:46;;;;;;;46.27;29.17;;;;;;;8.07;100.00;99653.89;1479242;88;21331;-77
2024/02/26 02:26:15;;;;;;;39.30;28.20;;;;;;;8.08;100.00;99651.58;1475490;87;21264;-77
2024/02/26 02:28:42;;;;;;;43.47;30.07;;;;;;;8.08;100.00;99645.48;1474814;88;21522;-77
2024/02/26 02:31:10;;;;;;;45.23;28.77;;;;;;;8.07;100.00;99649.11;1477983;87;21420;-77
2024/02/26 02:33:38;;;;;;;40.53;27.47;;;;;;;8.05;100.00;99647.11;1472572;87;22239;-77
2024/02/26 02:36:09;;;;;;;44.40;28.77;;;;;;;8.02;100.00;99645.59;1473785;87;21588;-77
2024/02/26 02:38:35;;;;;;;44.70;29.30;;;;;;;7.96;100.00;99642.75;1467913;87;22486;-77
2024/02/26 02:41:02;;;;;;;46.33;31.37;;;;;;;7.90;100.00;99642.85;1475514;88;21427;-78
2024/02/26 02:43:29;;;;;;;45.60;29.27;;;;;;;7.85;100.00;99643.78;1478060;87;21367;-77
2024/02/26 02:45:56;;;;;;;47.97;29.67;;;;;;;7.83;100.00;99639.17;1466682;88;21449;-77
2024/02/26 02:48:23;;;;;;;43.87;29.10;;;;;;;7.79;100.00;99649.16;1479880;87;21309;-77
2024/02/26 02:50:50;;;;;;;41.13;29.03;;;;;;;7.80;100.00;99647.38;1476319;87;22271;-78
2024/02/26 02:53:18;;;;;;;44.60;28.37;;;;;;;7.80;100.00;99646.06;1475193;87;21427;-79
2024/02/26 02:55:45;;;;;;;42.97;26.53;;;;;;;7.78;100.00;99644.88;1475950;87;21375;-79
2024/02/26 02:58:12;;;;;;;44.97;26.60;;;;;;;7.78;100.00;99642.24;1474911;87;22443;-79
2024/02/26 03:00:39;;;;;;;41.40;28.13;;;;;;;7.80;100.00;99644.25;1476216;87;21382;-79
2024/02/26 03:03:07;;;;;;;39.93;26.17;;;;;;;7.84;100.00;99644.77;1470532;87;21404;-79
2024/02/26 03:05:34;;;;;;;40.57;25.53;;;;;;;7.86;100.00;99642.33;1460802;88;21497;-79
2024/02/26 03:08:01;;;;;;;40.03;25.47;;;;;;;7.90;100.00;99637.09;1449015;88;21350;-79
2024/02/26 03:10:28;;;;;;;36.77;24.00;;;;;;;7.92;100.00;99639.59;1470300;87;21648;-79
2024/02/26 03:12:56;;;;;;;41.50;26.30;;;;;;;7.93;100.00;99637.28;1471226;87;21464;-78
2024/02/26 03:15:23;;;;;;;34.83;23.90;;;;;;;7.94;100.00;99639.42;1468283;88;21505;-79
2024/02/26 03:17:50;;;;;;;37.40;23.73;;;;;;;7.91;100.00;99633.95;1477732;87;21346;-79
2024/02/26 03:20:19;;;;;;;31.50;21.77;;;;;;;7.91;100.00;99633.95;1475244;88;21346;-79
2024/02/26 03:22:46;;;;;;;39.00;21.70;;;;;;;7.88;100.00;99640.38;1481449;88;21404;-79
2024/02/26 03:25:13;;;;;;;31.07;20.07;;;;;;;7.88;100.00;99638.21;1473004;88;21382;-79
2024/02/26 03:27:40;;;;;;;29.77;20.00;;;;;;;7.88;100.00;99636.89;1464045;87;21353;-78
2024/02/26 03:30:09;;;;;;;31.33;20.43;;;;;;;7.87;100.00;99640.02;1474441;87;21500;-78
2024/02/26 03:32:36;;;;;;;28.20;20.10;;;;;;;7.88;100.00;99635.58;1479579;87;21419;-78
2024/02/26 03:35:05;;;;;;;29.93;19.63;;;;;;;7.88;100.00;99632.48;1468894;87;22355;-79
2024/02/26 03:37:32;;;;;;;30.97;19.23;;;;;;;7.89;100.00;99635.94;1471457;87;21493;-79
2024/02/26 03:40:00;;;;;;;29.63;17.80;;;;;;;7.84;100.00;99634.23;1478713;87;21442;-79
2024/02/26 03:42:28;;;;;;;28.97;17.20;;;;;;;7.81;100.00;99634.04;1476581;87;21390;-79
2024/02/26 03:44:55;;;;;;;29.97;17.83;;;;;;;7.78;100.00;99636.97;1487475;88;22454;-79
2024/02/26 03:47:22;;;;;;;28.77;19.07;;;;;;;7.74;100.00;99634.77;1469215;87;21441;-79
2024/02/26 03:49:49;;;;;;;27.30;17.30;;;;;;;7.71;100.00;99633.75;1463676;88;21339;-79
2024/02/26 03:52:16;;;;;;;26.83;17.20;;;;;;;7.66;100.00;99632.91;1474653;87;22443;-79
2024/02/26 03:54:43;;;;;;;27.13;16.23;;;;;;;7.62;100.00;99635.02;1469210;87;21448;-79
2024/02/26 03:57:10;;;;;;;27.67;18.10;;;;;;;7.59;100.00;99630.01;1479097;87;21950;-78
2024/02/26 03:59:37;;;;;;;28.63;18.03;;;;;;;7.55;100.00;99625.20;1471840;88;21376;-79
2024/02/26 04:02:04;;;;;;;27.83;17.40;;;;;;;7.50;100.00;99623.00;1470477;87;22558;-79
2024/02/26 04:04:36;;;;;;;21.83;15.93;;;;;;;7.45;100.00;99630.50;1474846;87;21354;-78
2024/02/26 04:07:03;;;;;;;33.57;19.37;;;;;;;7.39;100.00;99630.63;1476148;88;21323;-79
2024/02/26 04:09:34;;;;;;;32.07;18.03;;;;;;;7.35;100.00;99635.83;1475126;87;21476;-79
2024/02/26 04:12:01;;;;;;;32.50;15.63;;;;;;;7.32;100.00;99641.39;1480803;87;21626;-79
2024/02/26 04:14:29;;;;;;;24.87;16.70;;;;;;;7.32;100.00;99640.56;1471422;88;21280;-79
2024/02/26 04:16:56;;;;;;;27.10;15.77;;;;;;;7.28;100.00;99645.77;1473683;87;21361;-78
2024/02/26 04:19:23;;;;;;;24.40;17.37;;;;;;;7.22;100.00;99648.02;1466164;87;21547;-79
2024/02/26 04:21:50;;;;;;;26.60;15.30;;;;;;;7.19;100.00;99641.73;1477274;88;21397;-79
2024/02/26 04:24:18;;;;;;;23.17;16.83;;;;;;;7.16;100.00;99643.34;1479120;88;21272;-77
2024/02/26 04:26:45;;;;;;;25.17;14.47;;;;;;;7.13;100.00;99643.61;1474250;87;21441;-78
2024/02/26 04:29:12;;;;;;;24.97;15.40;;;;;;;7.11;100.00;99644.26;1470879;87;21367;-78
2024/02/26 04:31:39;;;;;;;22.77;14.73;;;;;;;7.07;100.00;99645.99;1467511;88;22564;-78
2024/02/26 04:34:06;;;;;;;28.83;16.43;;;;;;;7.02;100.00;99647.76;1470301;88;21309;-79
2024/02/26 04:36:33;;;;;;;25.77;15.63;;;;;;;6.98;100.00;99651.63;1477240;88;21405;-79
2024/02/26 04:39:00;;;;;;;24.37;15.43;;;;;;;6.94;100.00;99648.96;1478918;87;21553;-79
2024/02/26 04:41:28;;;;;;;24.60;14.93;;;;;;;6.93;100.00;99645.97;1478852;87;21383;-80
2024/02/26 04:43:55;;;;;;;27.77;16.67;;;;;;;6.90;100.00;99641.81;1478531;87;21449;-80
2024/02/26 04:46:22;;;;;;;23.33;16.50;;;;;;;6.88;100.00;99642.95;1471610;88;22374;-79
2024/02/26 04:48:49;;;;;;;26.23;16.10;;;;;;;6.88;100.00;99640.33;1488170;87;21419;-79
2024/02/26 04:51:16;;;;;;;24.10;17.20;;;;;;;6.87;100.00;99643.91;1480539;87;21478;-79
2024/02/26 04:53:43;;;;;;;19.90;14.67;;;;;;;6.85;100.00;99645.84;1475495;87;21500;-78
2024/02/26 04:56:10;;;;;;;29.03;17.07;;;;;;;6.80;100.00;99648.92;1477092;87;21390;-78
2024/02/26 04:58:37;;;;;;;26.60;17.33;;;;;;;6.76;100.00;99646.22;1471916;87;21323;-78
2024/02/26 05:01:04;;;;;;;28.10;15.40;;;;;;;6.73;100.00;99638.16;1472658;87;21361;-79
2024/02/26 05:03:32;;;;;;;27.77;16.80;;;;;;;6.71;100.00;99647.15;1469227;87;21361;-78
2024/02/26 05:06:00;;;;;;;30.50;17.40;;;;;;;6.65;100.00;99648.54;1475023;87;22389;-78
2024/02/26 05:08:28;;;;;;;24.83;15.50;;;;;;;6.62;100.00;99657.17;1468826;87;22485;-78
2024/02/26 05:10:55;;;;;;;25.23;15.90;;;;;;;6.59;100.00;99650.42;1477041;87;21471;-78
2024/02/26 05:13:22;;;;;;;24.00;16.10;;;;;;;6.59;100.00;99659.63;1479704;87;21427;-77
2024/02/26 05:15:52;;;;;;;28.53;16.00;;;;;;;6.59;100.00;99662.25;1479228;88;21413;-78
2024/02/26 05:18:19;;;;;;;42.27;16.37;;;;;;;6.58;100.00;99661.89;1476332;87;21500;-79
2024/02/26 05:20:46;;;;;;;25.83;16.27;;;;;;;6.56;100.00;99657.28;1475804;87;21331;-79
2024/02/26 05:23:13;;;;;;;23.27;16.67;;;;;;;6.54;100.00;99655.27;1478657;87;22426;-78
2024/02/26 05:25:41;;;;;;;21.03;16.30;;;;;;;6.52;100.00;99658.52;1470626;87;21411;-77
2024/02/26 05:28:08;;;;;;;28.63;17.07;;;;;;;6.48;100.00;99659.28;1471217;87;21398;-78
2024/02/26 05:30:35;;;;;;;30.60;17.30;;;;;;;6.45;100.00;99657.43;1476514;88;21449;-78
2024/02/26 05:33:03;;;;;;;23.57;15.23;;;;;;;6.43;100.00;99675.95;1477251;87;21965;-77
2024/02/26 05:35:30;;;;;;;29.63;17.60;;;;;;;6.41;100.00;99666.05;1468994;88;21390;-77
2024/02/26 05:37:57;;;;;;;33.20;20.03;;;;;;;6.39;100.00;99667.16;1472917;88;21420;-78
2024/02/26 05:40:24;;;;;;;50.43;25.80;;;;;;;6.36;100.00;99668.75;1478429;87;21383;-78
2024/02/26 05:42:51;;;;;;;57.03;30.20;;;;;;;6.35;100.00;99676.30;1483460;87;21419;-77
2024/02/26 05:45:19;;;;;;;44.73;26.67;;;;;;;6.33;100.00;99674.66;1472427;87;21250;-78
2024/02/26 05:47:46;;;;;;;57.93;33.07;;;;;;;6.33;100.00;99678.59;1480664;87;22366;-77
2024/02/26 05:50:14;;;;;;;53.33;28.63;;;;;;;6.35;100.00;99674.99;1474575;87;21412;-78
2024/02/26 05:52:42;;;;;;;47.43;24.70;;;;;;;6.35;100.00;99673.19;1464412;87;21369;-78
2024/02/26 05:55:10;;;;;;;47.27;26.77;;;;;;;6.35;100.00;99677.62;1478823;87;21390;-78
2024/02/26 05:57:37;;;;;;;44.63;24.90;;;;;;;6.29;100.00;99682.45;1474333;87;21597;-78
2024/02/26 06:00:06;;;;;;;42.63;24.63;;;;;;;6.26;100.00;99693.24;1479967;87;22306;-78
2024/02/26 06:02:33;;;;;;;31.67;19.27;;;;;;;6.26;100.00;99685.36;1470836;88;21360;-77
2024/02/26 06:05:00;;;;;;;29.93;18.20;;;;;;;6.25;100.00;99694.22;1464470;88;21604;-77
2024/02/26 06:07:27;;;;;;;30.70;18.40;;;;;;;6.25;100.00;99699.48;1464733;87;21883;-77
2024/02/26 06:09:54;;;;;;;33.07;18.17;;;;;;;6.27;100.00;99693.61;1473966;87;21450;-78
2024/02/26 06:12:21;;;;;;;27.87;16.70;;;;;;;6.30;100.00;99699.91;1473273;87;22417;-77
2024/02/26 06:14:49;;;;;;;20.43;15.03;;;;;;;6.31;100.00;99698.92;1473370;87;21456;-78
2024/02/26 06:17:16;;;;;;;23.93;15.10;;;;;;;6.32;100.00;99701.89;1479659;87;21501;-77
2024/02/26 06:19:43;;;;;;;29.90;15.70;;;;;;;6.35;100.00;99701.27;1469878;88;21383;-77
2024/02/26 06:22:10;;;;;;;24.33;15.13;;;;;;;6.38;100.00;99709.70;1465562;87;22307;-77
2024/02/26 06:24:37;;;;;;;24.50;14.87;;;;;;;6.43;100.00;99711.93;1469878;88;21376;-77
2024/02/26 06:27:05;;;;;;;25.27;15.83;;;;;;;6.49;100.00;99714.83;1480621;87;21598;-78
2024/02/26 06:29:32;;;;;;;24.40;16.13;;;;;;;6.58;100.00;99714.97;1473408;87;21426;-77
2024/02/26 06:31:59;;;;;;;27.37;16.80;;;;;;;6.70;100.00;99716.47;1471958;87;21575;-77
2024/02/26 06:34:26;;;;;;;28.97;15.77;;;;;;;6.85;100.00;99716.41;1478502;87;21368;-76
2024/02/26 06:36:53;;;;;;;21.87;15.33;;;;;;;7.02;100.00;99710.91;1472484;87;22196;-76
2024/02/26 06:39:20;;;;;;;26.83;15.73;;;;;;;7.18;100.00;99707.17;1477317;88;21353;-76
2024/02/26 06:41:48;;;;;;;30.80;16.10;;;;;;;7.34;100.00;99708.38;1473538;87;22440;-76
2024/02/26 06:44:15;;;;;;;21.87;15.50;;;;;;;7.48;100.00;99709.23;1470756;88;21343;-76
2024/02/26 06:46:42;;;;;;;25.27;15.40;;;;;;;7.62;100.00;99707.44;1475772;87;22291;-78
2024/02/26 06:49:09;;;;;;;27.77;16.47;;;;;;;7.79;100.00;99707.60;1475323;87;22388;-77
2024/02/26 06:51:36;;;;;;;24.77;15.40;;;;;;;7.97;100.00;99701.05;1478134;87;21405;-77
2024/02/26 06:54:03;;;;;;;22.70;13.70;;;;;;;8.11;100.00;99706.66;1477471;87;21362;-76
2024/02/26 06:56:30;;;;;;;21.83;11.37;;;;;;;8.27;100.00;99711.25;1476079;87;21509;-76
2024/02/26 06:58:57;;;;;;;22.13;11.10;;;;;;;8.45;100.00;99711.27;1470391;87;21264;-77
2024/02/26 07:01:24;;;;;;;23.17;12.83;;;;;;;8.62;100.00;99708.29;1474533;87;21457;-78
2024/02/26 07:03:51;;;;;;;29.43;15.83;;;;;;;8.77;100.00;99705.43;1466043;87;21412;-78
2024/02/26 07:06:19;;;;;;;25.93;15.13;;;;;;;8.94;100.00;99707.70;1477156;87;21405;-78
2024/02/26 07:08:45;;;;;;;29.67;15.40;;;;;;;9.07;100.00;99705.16;1471136;87;21323;-76
2024/02/26 07:11:13;;;;;;;19.77;13.83;;;;;;;9.13;100.00;99703.22;1476889;87;21426;-77
2024/02/26 07:13:40;;;;;;;26.53;14.80;;;;;;;9.17;100.00;99697.95;1473857;87;21434;-77
2024/02/26 07:16:10;;;;;;;22.13;11.87;;;;;;;9.19;100.00;99700.77;1475415;88;21375;-81
2024/02/26 07:18:39;;;;;;;19.20;12.10;;;;;;;9.22;100.00;99701.78;1472657;88;21398;-76
2024/02/26 07:21:06;;;;;;;20.60;11.80;;;;;;;9.23;100.00;99702.59;1475167;87;21361;-77
2024/02/26 07:23:33;;;;;;;19.67;11.67;;;;;;;9.25;100.00;99700.64;1472027;87;21346;-77
2024/02/26 07:26:01;;;;;;;29.50;13.17;;;;;;;9.27;100.00;99703.95;1475644;87;21331;-78
2024/02/26 07:28:28;;;;;;;20.20;13.03;;;;;;;9.30;100.00;99703.64;1478258;87;21427;-77
2024/02/26 07:30:55;;;;;;;20.80;12.47;;;;;;;9.35;100.00;99704.47;1477896;87;22003;-77
2024/02/26 07:33:22;;;;;;;21.87;13.43;;;;;;;9.41;100.00;99707.34;1474526;87;21449;-78
2024/02/26 07:35:50;;;;;;;20.90;12.13;;;;;;;9.49;100.00;99704.73;1477207;87;21272;-78
2024/02/26 07:38:17;;;;;;;18.13;11.20;;;;;;;9.58;100.00;99702.11;1474598;88;21339;-78
2024/02/26 07:40:44;;;;;;;19.13;11.17;;;;;;;9.65;100.00;99698.68;1471978;88;21337;-77
2024/02/26 07:43:11;;;;;;;17.63;10.90;;;;;;;9.73;100.00;99696.57;1475410;87;21457;-78
2024/02/26 07:45:38;;;;;;;24.20;10.77;;;;;;;9.84;100.00;99696.28;1473579;88;21397;-78
2024/02/26 07:48:07;;;;;;;18.70;11.43;;;;;;;9.94;100.00;99700.92;1474685;87;22476;-78
2024/02/26 07:50:34;;;;;;;14.07;10.03;;;;;;;10.07;100.00;99698.30;1467777;87;21420;-78
2024/02/26 07:53:00;;;;;;;22.33;11.00;;;;;;;10.23;100.00;99697.02;1468884;87;22792;-78
2024/02/26 07:55:27;;;;;;;23.03;11.60;;;;;;;10.36;100.00;99702.69;1480895;87;21419;-78
2024/02/26 07:57:55;;;;;;;23.87;11.37;;;;;;;10.47;100.00;99704.20;1478983;87;21361;-78
2024/02/26 08:00:22;;;;;;;24.00;14.17;;;;;;;10.56;100.00;99703.70;1472242;87;21449;-78
2024/02/26 08:02:49;;;;;;;20.77;12.07;;;;;;;10.63;100.00;99704.69;1474197;87;21346;-78
2024/02/26 08:05:16;;;;;;;15.93;10.47;;;;;;;10.72;100.00;99716.91;1465743;87;21928;-79
2024/02/26 08:07:43;;;;;;;15.80;10.30;;;;;;;10.82;100.00;99711.47;1475424;87;21339;-79
2024/02/26 08:10:11;;;;;;;16.50;10.73;;;;;;;10.92;100.00;99712.61;1474401;87;21324;-78
2024/02/26 08:12:38;;;;;;;14.10;9.83;;;;;;;11.04;100.00;99709.94;1481626;88;21504;-78
2024/02/26 08:15:07;;;;;;;16.23;9.40;;;;;;;11.25;100.00;99708.92;1478474;87;21545;-77
2024/02/26 08:17:35;;;;;;;14.80;9.30;;;;;;;11.42;100.00;99710.17;1469919;87;22966;-76
2024/02/26 08:20:04;;;;;;;9.67;7.60;;;;;;;11.50;100.00;99708.83;1472029;87;22447;-79
2024/02/26 08:22:31;;;;;;;15.40;9.13;;;;;;;11.58;100.00;99715.94;1469922;87;21310;-78
2024/02/26 08:24:58;;;;;;;19.57;8.90;;;;;;;11.62;100.00;99719.37;1476200;87;21360;-78
2024/02/26 08:27:25;;;;;;;12.10;8.07;;;;;;;11.68;100.00;99713.89;1466591;88;22728;-77
2024/02/26 08:29:53;;;;;;;16.23;7.40;;;;;;;11.74;100.00;99718.53;1471985;88;22352;-78
2024/02/26 08:32:20;;;;;;;13.17;8.30;;;;;;;11.84;100.00;99716.98;1472484;87;21374;-77
2024/02/26 08:34:47;;;;;;;19.87;8.13;;;;;;;11.92;100.00;99711.68;1468590;87;21369;-77
2024/02/26 08:37:14;;;;;;;12.83;7.20;;;;;;;12.01;100.00;99714.61;1476310;87;21354;-75
2024/02/26 08:39:41;;;;;;;18.77;8.77;;;;;;;12.15;100.00;99719.17;1428146;87;21498;-78
2024/02/26 08:42:08;;;;;;;10.87;6.33;;;;;;;12.30;100.00;99715.77;1559042;88;21272;-79
2024/02/26 08:44:35;;;;;;;12.37;6.70;;;;;;;12.47;100.00;99721.28;1392198;89;21250;-79
2024/02/26 08:47:03;;;;;;;14.90;7.03;;;;;;;12.57;100.00;99723.20;1398466;88;21206;-78
2024/02/26 08:49:30;;;;;;;10.67;6.33;;;;;;;12.70;100.00;99720.45;1398630;87;21250;-78
2024/02/26 08:51:57;;;;;;;11.33;6.57;;;;;;;12.87;100.00;99716.65;1398979;88;21316;-77
2024/02/26 08:54:24;;;;;;;14.10;6.57;;;;;;;13.01;100.00;99718.52;1398762;87;21339;-78
2024/02/26 08:56:51;;;;;;;12.53;6.07;;;;;;;13.15;100.00;99719.55;1398584;88;21388;-78
2024/02/26 08:59:22;;;;;;;11.37;6.97;;;;;;;13.24;100.00;99721.62;1399161;87;21478;-78
2024/02/26 09:01:47;;;;;;;11.23;6.10;;;;;;;13.34;100.00;99717.38;1396765;87;21250;-78
2024/02/26 09:04:14;;;;;;;11.77;6.23;;;;;;;13.50;100.00;99718.03;1404909;87;22219;-78
2024/02/26 09:06:41;;;;;;;10.57;6.33;;;;;;;13.71;100.00;99715.12;1559030;88;21236;-78
2024/02/26 09:09:08;;;;;;;12.10;6.83;;;;;;;13.95;100.00;99725.47;1398990;88;21265;-78
2024/02/26 09:11:36;;;;;;;13.43;6.40;;;;;;;14.13;100.00;99723.72;1398557;87;21449;-77
2024/02/26 09:14:08;;;;;;;12.43;6.57;;;;;;;14.31;100.00;99719.81;1398667;88;22101;-78
2024/02/26 09:16:32;;;;;;;11.07;6.10;;;;;;;14.52;100.00;99720.34;1401185;88;21346;-77
2024/02/26 09:18:59;;;;;;;14.00;6.27;;;;;;;14.70;100.00;99722.04;1559084;87;22065;-78
2024/02/26 09:21:26;;;;;;;12.67;6.80;;;;;;;14.87;100.00;99715.45;1398563;88;21387;-78
2024/02/26 09:23:53;;;;;;;13.53;5.83;;;;;;;15.02;100.00;99717.20;1398886;88;21302;-80
2024/02/26 09:26:20;;;;;;;8.67;5.73;;;;;;;15.21;100.00;99713.83;1398364;87;22101;-80
2024/02/26 09:28:48;;;;;;;14.53;5.80;;;;;;;15.45;100.00;99710.38;1398583;87;21235;-81
2024/02/26 09:31:17;;;;;;;11.30;6.50;;;;;;;15.64;100.00;99711.52;1404399;87;21309;-81
2024/02/26 09:33:45;;;;;;;10.53;5.80;;;;;;;15.94;100.00;99716.08;1559135;87;22094;-79
2024/02/26 09:36:13;;;;;;;11.88;6.05;;;;;;;16.41;100.00;99721.05;1397544;87;21366;-79
2024/02/26 09:38:40;;;;;;;8.45;5.67;;;;;;;16.81;100.00;99713.93;1397530;87;22203;-82
2024/02/26 09:41:16;;;;;;;11.05;5.47;;;;;;;17.36;100.00;99706.98;1398440;87;21302;-80
2024/02/26 09:43:48;;;;;;;11.05;5.67;;;;;;;17.84;100.00;99713.34;1559114;87;21191;-81
2024/02/26 09:46:17;;;;;;;16.05;7.12;;;;;;;18.60;100.00;99713.83;1553276;87;21316;-81
2024/02/26 09:48:46;;;;;;;10.20;5.22;;;;;;;19.29;100.00;99712.02;1396083;88;22179;-81
2024/02/26 09:51:15;;;;;;;9.30;5.33;;;;;;;19.79;76.96;99712.43;1396586;87;21279;-80
2024/02/26 09:53:45;;;;;;;8.70;5.37;;;;;;;20.27;67.37;99711.07;1390475;89;21258;-81
2024/02/26 09:56:13;;;;;;;;;;;;;;;20.57;65.30;99714.30;1397265;88;21191;-80
2024/02/26 09:58:42;;;;;;;11.75;4.87;;;;;;;20.94;58.28;99706.03;1454238;88;20422;-80
2024/02/26 10:01:13;;;;;;;10.50;5.95;;;;;;;21.34;59.95;99706.14;1468449;87;21330;-81
2024/02/26 10:03:46;;;;;;;13.15;6.03;;;;;;;21.62;57.16;99709.47;1468389;87;21412;-81
2024/02/26 10:06:14;;;;;;;9.85;5.75;;;;;;;21.92;55.96;99708.45;1474564;87;21418;-82
2024/02/26 10:08:43;;;;;;;10.85;5.10;;;;;;;22.05;53.26;99704.13;1466297;88;21449;-81
2024/02/26 10:11:10;;;;;;;12.00;5.90;;;;;;;22.30;53.44;99705.17;1482644;87;21324;-80
2024/02/26 10:13:38;;;;;;;13.80;6.47;;;;;;;22.43;52.64;99701.34;1391378;89;22216;-81
2024/02/26 10:16:06;;;;;;;17.32;9.85;;;;;;;22.47;52.44;99701.16;1404085;88;21346;-79
2024/02/26 10:18:51;;;;;;;11.55;6.40;;;;;;;22.15;51.21;99703.49;1559115;88;21185;-80
2024/02/26 10:21:21;;;;;;;12.13;5.90;;;;;;;22.23;51.66;99710.41;1559106;88;21258;-80
2024/02/26 10:23:50;;;;;;;10.00;5.75;;;;;;;22.32;51.88;99704.10;1396703;88;21206;-81
2024/02/26 10:26:17;;;;;;;10.65;5.22;;;;;;;22.22;51.43;99703.40;1396551;87;22067;-81
2024/02/26 10:28:45;;;;;;;13.30;6.90;;;;;;;22.01;50.66;99702.98;1404431;87;21360;-83
2024/02/26 10:31:15;;;;;;;12.50;4.70;;;;;;;21.60;50.30;99703.50;1397697;87;22167;-82
2024/02/26 10:33:44;;;;;;;11.03;4.97;;;;;;;21.31;50.74;99697.73;1416389;88;21419;-82
2024/02/26 10:36:12;;;;;;;12.40;5.17;;;;;;;21.11;51.03;99704.28;1468124;87;21368;-82
2024/02/26 10:38:39;;;;;;;14.15;6.28;;;;;;;20.79;51.00;99697.08;1475582;87;21458;-83
2024/02/26 10:41:08;;;;;;;21.07;5.05;;;;;;;20.58;50.97;99703.84;1465420;88;21383;-83
2024/02/26 10:43:35;;;;;;;10.28;3.37;;;;;;;20.00;48.49;99702.56;1474594;88;21353;-82
2024/02/26 10:46:03;;;;;;;9.75;4.40;;;;;;;19.85;50.53;99699.44;1467394;87;22388;-81
2024/02/26 10:48:30;;;;;;;7.42;3.42;;;;;;;19.63;50.52;99691.02;1464965;88;22129;-81
2024/02/26 10:50:58;;;;;;;7.87;3.50;;;;;;;19.37;50.22;99695.64;1471910;88;21361;-82
2024/02/26 10:53:31;;;;;;;6.28;3.52;;;;;;;19.37;50.76;99687.59;1472564;87;22491;-82
2024/02/26 10:56:05;;;;;;;5.95;3.22;;;;;;;19.15;49.09;99690.40;1483876;88;21338;-81
2024/02/26 10:58:32;;;;;;;13.25;3.90;;;;;;;19.23;50.90;99684.75;1477959;88;21338;-80
2024/02/26 11:01:00;;;;;;;3.98;2.98;;;;;;;19.59;49.56;99681.77;1480051;87;21324;-81
2024/02/26 11:03:32;;;;;;;7.47;3.10;;;;;;;19.81;46.84;99669.55;1470773;88;21367;-78
2024/02/26 11:05:59;;;;;;;8.70;3.45;;;;;;;19.97;48.03;99675.36;1463299;88;21389;-80
2024/02/26 11:08:28;;;;;;;5.37;3.05;;;;;;;20.18;48.30;99673.49;1475221;87;21531;-81
2024/02/26 11:10:56;;;;;;;8.65;3.37;;;;;;;20.27;45.91;99668.61;1474275;87;21508;-81
2024/02/26 11:13:29;;;;;;;11.43;4.62;;;;;;;20.53;47.79;99662.04;1397167;87;21348;-83
2024/02/26 11:15:57;;;;;;;7.33;3.00;;;;;;;20.60;46.91;99661.42;1559271;88;21192;-81
2024/02/26 11:18:27;;;;;;;8.20;3.02;;;;;;;20.29;46.04;99656.59;1397934;87;21250;-83
2024/02/26 11:24:57;;;;;;;10.65;3.30;;;;;;;19.70;47.28;99658.22;1476114;88;21338;-82